Time;durP1;ratioP1;P1;durP2;ratioP2;P2;SDS_P1;SDS_P2;PMS_P1;PMS_P2;Temp;Humidity;BMP_temperature;BMP_pressure;BME280_temperature;BME280_humidity;BME280_pressure;Samples;Min_cycle;Max_cycle;Signal;HPM_P1;HPM_P2
2022/10/16 00:01:44;;;;;;;0.90;0.90;;;;;;;1.47;80.86;100467.50;4898176;29;20508;-87
2022/10/16 00:04:11;;;;;;;0.85;0.85;;;;;;;1.46;80.85;100471.13;4901456;29;20059;-88
2022/10/16 00:06:39;;;;;;;0.75;0.75;;;;;;;1.39;81.16;100473.53;4901086;29;20056;-88
2022/10/16 00:09:06;;;;;;;0.80;0.80;;;;;;;1.34;81.36;100473.16;4897941;29;20056;-88
2022/10/16 00:11:38;;;;;;;0.80;0.80;;;;;;;1.38;81.43;100473.72;4898115;29;20057;-86
2022/10/16 00:14:10;;;;;;;0.70;0.70;;;;;;;1.39;81.55;100476.19;4897808;29;20116;-87
2022/10/16 00:16:40;;;;;;;0.85;0.85;;;;;;;1.44;81.15;100481.09;4880551;29;20060;-88
2022/10/16 00:19:09;;;;;;;0.80;0.80;;;;;;;1.44;81.19;100481.94;4897325;29;20496;-88
2022/10/16 00:21:40;;;;;;;0.90;0.90;;;;;;;1.42;80.95;100480.38;4897841;29;20049;-86
2022/10/16 00:24:26;;;;;;;0.80;0.80;;;;;;;1.38;80.99;100485.19;4897895;29;20050;-88
2022/10/16 00:26:53;;;;;;;0.80;0.80;;;;;;;1.33;81.32;100478.63;4897805;29;20041;-89
2022/10/16 00:29:20;;;;;;;0.73;0.73;;;;;;;1.29;81.54;100486.94;4897101;29;20112;-88
2022/10/16 00:31:51;;;;;;;0.80;0.80;;;;;;;1.28;81.51;100487.06;4897479;29;20469;-88
2022/10/16 00:34:27;;;;;;;0.80;0.80;;;;;;;1.27;81.78;100488.06;4897503;29;20137;-88
2022/10/16 00:36:54;;;;;;;0.85;0.85;;;;;;;1.27;81.71;100485.41;4897937;29;20049;-89
2022/10/16 00:39:22;;;;;;;0.80;0.80;;;;;;;1.24;81.56;100488.31;4897438;29;20052;-89
2022/10/16 00:41:49;;;;;;;0.90;0.90;;;;;;;1.21;81.79;100485.97;4897328;29;20057;-88
2022/10/16 00:44:44;;;;;;;0.90;0.90;;;;;;;1.20;81.99;100486.97;4897083;29;20548;-88
2022/10/16 00:47:15;;;;;;;0.90;0.90;;;;;;;1.16;82.06;100490.91;4897266;29;20066;-86
2022/10/16 00:49:42;;;;;;;0.90;0.90;;;;;;;1.16;82.12;100491.72;4911325;29;20380;-88
2022/10/16 00:52:09;;;;;;;0.80;0.80;;;;;;;1.19;82.10;100491.47;4911746;29;20052;-90
2022/10/16 00:54:36;;;;;;;0.90;0.90;;;;;;;1.18;81.93;100487.09;4896178;29;20068;-89
2022/10/16 00:57:05;;;;;;;0.80;0.80;;;;;;;1.15;82.00;100495.38;4911724;29;20534;-90
2022/10/16 00:59:38;;;;;;;0.80;0.80;;;;;;;1.09;82.22;100495.97;4896831;29;20131;-91
2022/10/16 01:02:07;;;;;;;0.60;0.60;;;;;;;1.08;82.38;100496.94;4898943;29;20531;-90
2022/10/16 01:04:44;;;;;;;0.80;0.80;;;;;;;1.06;82.50;100498.91;4912148;29;20119;-87
2022/10/16 01:07:32;;;;;;;0.80;0.80;;;;;;;1.04;82.56;100495.59;4906380;29;20063;-86
2022/10/16 01:10:14;;;;;;;;;;;;;;;0.99;82.55;100500.50;4904832;29;20064;-86
2022/10/16 01:12:47;;;;;;;0.70;0.70;;;;;;;0.95;82.60;100493.78;4903942;29;19935;-86
2022/10/16 01:15:20;;;;;;;0.70;0.70;;;;;;;0.98;82.59;100504.13;4897671;29;20104;-86
2022/10/16 01:18:01;;;;;;;0.90;0.90;;;;;;;0.95;82.61;100504.44;4901898;29;20500;-85
2022/10/16 01:20:31;;;;;;;0.82;0.82;;;;;;;0.98;82.77;100509.44;4901510;29;20083;-87
2022/10/16 01:23:04;;;;;;;0.70;0.70;;;;;;;1.02;82.67;100510.84;4914695;29;20052;-86
2022/10/16 01:26:09;;;;;;;0.75;0.75;;;;;;;0.98;82.65;100504.97;4898449;29;20063;-88
2022/10/16 01:28:51;;;;;;;0.70;0.70;;;;;;;0.94;83.13;100514.22;4896128;29;20143;-86
2022/10/16 01:31:20;;;;;;;0.80;0.80;;;;;;;0.94;83.02;100516.88;4910355;29;20135;-88
2022/10/16 01:34:21;;;;;;;0.80;0.80;;;;;;;0.92;83.17;100515.34;4911133;29;20048;-87
2022/10/16 01:36:56;;;;;;;0.80;0.80;;;;;;;0.92;83.36;100521.50;4886347;29;20056;-85
2022/10/16 01:39:28;;;;;;;1.00;1.00;;;;;;;0.89;83.58;100512.97;4910712;29;20475;-86
2022/10/16 01:42:03;;;;;;;0.88;0.88;;;;;;;0.92;83.15;100526.00;4896224;29;20060;-87
2022/10/16 01:44:32;;;;;;;0.90;0.90;;;;;;;0.85;83.48;100515.09;4910692;29;20060;-86
2022/10/16 01:47:00;;;;;;;0.80;0.80;;;;;;;0.85;83.52;100521.22;4910778;29;20048;-87
2022/10/16 01:49:31;;;;;;;0.82;0.82;;;;;;;0.88;83.65;100521.94;4910499;29;20128;-88
2022/10/16 01:52:04;;;;;;;0.90;0.90;;;;;;;0.87;83.30;100518.44;4895091;29;20083;-89
2022/10/16 01:54:35;;;;;;;0.80;0.80;;;;;;;0.86;83.30;100511.44;4910144;29;20131;-89
2022/10/16 01:57:05;;;;;;;0.80;0.80;;;;;;;0.83;83.56;100520.53;4910885;29;20115;-89
2022/10/16 01:59:40;;;;;;;0.80;0.80;;;;;;;0.81;83.24;100516.34;4894822;29;20066;-88
2022/10/16 02:02:08;;;;;;;0.88;0.88;;;;;;;0.84;83.48;100524.88;4910622;29;20505;-87
2022/10/16 02:04:43;;;;;;;0.98;0.98;;;;;;;0.85;83.42;100525.72;4910164;29;20072;-87
2022/10/16 02:07:10;;;;;;;0.90;0.90;;;;;;;0.79;83.36;100524.47;4871024;29;20503;-85
2022/10/16 02:09:37;;;;;;;0.80;0.80;;;;;;;0.78;83.76;100516.63;4910841;29;20576;-87
2022/10/16 02:12:15;;;;;;;0.98;0.98;;;;;;;0.81;83.73;100526.97;4895002;29;20054;-87
2022/10/16 02:14:42;;;;;;;0.80;0.80;;;;;;;0.80;83.53;100531.47;4901674;29;20061;-86
2022/10/16 02:17:13;;;;;;;0.82;0.82;;;;;;;0.74;83.49;100524.06;4901979;29;20460;-86
2022/10/16 02:19:40;;;;;;;0.90;0.90;;;;;;;0.73;83.74;100519.72;4900657;29;20056;-87
2022/10/16 02:22:16;;;;;;;0.88;0.88;;;;;;;0.77;83.96;100529.09;4900095;29;20496;-88
2022/10/16 02:24:50;;;;;;;0.90;0.90;;;;;;;0.78;83.83;100525.44;4898892;29;20045;-88
2022/10/16 02:27:39;;;;;;;0.90;0.90;;;;;;;0.88;83.47;100525.41;4898985;29;20053;-87
2022/10/16 02:30:14;;;;;;;0.70;0.70;;;;;;;0.79;83.48;100531.63;4899965;29;20074;-90
2022/10/16 02:32:42;;;;;;;;;;;;;;;0.75;83.49;100539.03;4914857;29;20087;-88
2022/10/16 02:35:12;;;;;;;0.80;0.80;;;;;;;0.71;83.55;100531.47;4914685;29;19927;-91
2022/10/16 02:37:40;;;;;;;0.80;0.80;;;;;;;0.64;83.58;100536.56;4899647;29;20080;-89
2022/10/16 02:40:08;;;;;;;0.90;0.90;;;;;;;0.67;83.76;100532.78;4901322;29;20202;-92
2022/10/16 02:42:36;;;;;;;0.90;0.90;;;;;;;0.62;83.86;100541.16;4904790;29;20056;-88
2022/10/16 02:45:05;;;;;;;0.80;0.80;;;;;;;0.57;84.03;100530.97;4900388;29;20562;-91
2022/10/16 02:47:32;;;;;;;0.90;0.90;;;;;;;0.60;84.38;100537.81;4900405;29;20048;-90
2022/10/16 02:50:02;;;;;;;0.80;0.80;;;;;;;0.60;84.09;100543.94;4900829;29;20062;-91
2022/10/16 02:52:29;;;;;;;0.80;0.80;;;;;;;0.58;84.35;100539.75;4915574;29;20401;-91
2022/10/16 02:54:56;;;;;;;0.90;0.90;;;;;;;0.56;84.43;100545.22;4899261;29;20076;-91
2022/10/16 02:57:25;;;;;;;0.80;0.80;;;;;;;0.54;84.58;100538.38;4900126;29;20048;-91
2022/10/16 02:59:53;;;;;;;0.90;0.90;;;;;;;0.52;84.49;100548.31;4915247;29;20104;-91
2022/10/16 03:02:20;;;;;;;0.80;0.80;;;;;;;0.50;84.84;100543.13;4915075;29;20108;-90
2022/10/16 03:04:47;;;;;;;0.80;0.80;;;;;;;0.49;84.93;100545.94;4904816;29;20048;-89
2022/10/16 03:07:14;;;;;;;0.90;0.90;;;;;;;0.45;85.00;100547.19;4904115;29;20557;-88
2022/10/16 03:09:41;;;;;;;0.85;0.85;;;;;;;0.44;85.13;100549.03;4899723;29;20064;-89
2022/10/16 03:12:11;;;;;;;0.80;0.80;;;;;;;0.42;84.93;100546.50;4899986;29;20240;-89
2022/10/16 03:14:40;;;;;;;0.90;0.90;;;;;;;0.42;85.05;100546.50;4899167;29;20072;-88
2022/10/16 03:17:07;;;;;;;0.90;0.90;;;;;;;0.43;85.08;100548.19;4899072;29;20048;-88
2022/10/16 03:19:35;;;;;;;0.90;0.90;;;;;;;0.40;84.92;100551.09;4897584;29;20520;-90
2022/10/16 03:22:02;;;;;;;0.80;0.80;;;;;;;0.34;85.14;100554.34;4899070;29;20054;-88
2022/10/16 03:24:30;;;;;;;0.90;0.90;;;;;;;0.35;85.27;100560.47;4898052;29;20049;-88
2022/10/16 03:26:57;;;;;;;0.73;0.73;;;;;;;0.36;85.13;100559.50;4899274;29;20048;-87
2022/10/16 03:29:25;;;;;;;0.85;0.85;;;;;;;0.31;85.13;100565.25;4898373;29;20049;-92
2022/10/16 03:31:52;;;;;;;0.70;0.70;;;;;;;0.30;85.36;100560.88;4899962;29;20068;-89
2022/10/16 03:34:19;;;;;;;0.90;0.90;;;;;;;0.28;85.44;100565.53;4900865;29;20081;-91
2022/10/16 03:36:46;;;;;;;0.80;0.80;;;;;;;0.23;85.53;100559.81;4900963;29;20428;-91
2022/10/16 03:39:14;;;;;;;1.00;1.00;;;;;;;0.26;85.72;100567.47;4900116;29;20051;-89
2022/10/16 03:41:41;;;;;;;0.90;0.90;;;;;;;0.28;85.53;100565.53;4913848;29;20112;-90
2022/10/16 03:44:07;;;;;;;0.80;0.80;;;;;;;0.25;85.54;100563.13;4901821;29;20056;-93
2022/10/16 03:46:35;;;;;;;0.90;0.90;;;;;;;0.21;85.61;100564.41;4902979;29;20052;-91
2022/10/16 03:49:02;;;;;;;0.80;0.80;;;;;;;0.22;85.82;100571.38;4901663;29;20404;-89
2022/10/16 03:51:36;;;;;;;0.80;0.80;;;;;;;0.20;85.72;100558.25;4899911;29;20420;-91
2022/10/16 03:54:05;;;;;;;0.90;0.90;;;;;;;0.22;85.79;100564.25;4899775;29;20083;-90
2022/10/16 03:56:32;;;;;;;0.80;0.80;;;;;;;0.23;85.63;100565.09;4898311;29;20572;-93
2022/10/16 03:58:59;;;;;;;0.80;0.80;;;;;;;0.20;85.62;100562.72;4899379;29;20600;-92
2022/10/16 04:01:33;;;;;;;0.90;0.90;;;;;;;0.18;85.87;100570.00;4899293;29;20056;-93
2022/10/16 04:04:00;;;;;;;0.95;0.95;;;;;;;0.22;85.78;100566.06;4907533;29;20056;-94
2022/10/16 04:06:27;;;;;;;0.80;0.80;;;;;;;0.22;85.69;100568.72;4907494;29;20060;-96
2022/10/16 04:08:57;;;;;;;0.90;0.90;;;;;;;0.10;85.66;100559.22;4934049;23;20052;-92
2022/10/16 04:11:24;;;;;;;0.80;0.80;;;;;;;0.07;85.87;100556.84;4955223;29;20048;-93
2022/10/16 04:13:51;;;;;;;0.90;0.90;;;;;;;0.12;85.91;100562.56;4946302;29;20430;-93
2022/10/16 04:16:18;;;;;;;0.82;0.82;;;;;;;0.19;85.94;100569.00;4933073;29;20071;-94
2022/10/16 04:18:46;;;;;;;0.90;0.90;;;;;;;0.21;85.88;100572.38;4938648;29;20059;-92
2022/10/16 04:21:13;;;;;;;0.80;0.80;;;;;;;0.27;85.63;100573.63;4951579;29;20052;-95
2022/10/16 04:23:43;;;;;;;0.80;0.80;;;;;;;0.26;85.37;100571.97;4905387;29;20147;-89
2022/10/16 04:26:13;;;;;;;0.90;0.90;;;;;;;0.25;85.53;100564.94;4902253;29;20049;-90
2022/10/16 04:28:48;;;;;;;;;;;;;;;0.30;85.48;100576.00;4870175;29;20108;-86
2022/10/16 04:31:18;;;;;;;0.90;0.90;;;;;;;0.39;85.19;100578.66;4882253;29;19927;-91
2022/10/16 04:33:46;;;;;;;1.00;1.00;;;;;;;0.55;84.52;100578.06;4890369;29;20053;-86
2022/10/16 04:36:18;;;;;;;0.90;0.90;;;;;;;0.54;83.91;100570.25;4891485;29;20169;-89
2022/10/16 04:38:45;;;;;;;0.90;0.90;;;;;;;0.62;83.82;100581.84;4896455;29;20149;-88
2022/10/16 04:41:12;;;;;;;0.80;0.80;;;;;;;0.73;83.72;100585.34;4896788;29;20147;-89
2022/10/16 04:43:39;;;;;;;0.80;0.80;;;;;;;0.79;83.39;100590.94;4895404;29;20552;-89
2022/10/16 04:46:10;;;;;;;0.90;0.90;;;;;;;0.85;82.98;100574.41;4880881;29;20053;-91
2022/10/16 04:48:43;;;;;;;0.90;0.90;;;;;;;1.06;82.41;100581.34;4888053;29;20056;-91
2022/10/16 04:51:10;;;;;;;0.80;0.80;;;;;;;1.07;81.99;100581.22;4895358;29;20083;-90
2022/10/16 04:53:37;;;;;;;0.82;0.82;;;;;;;1.00;81.77;100588.06;4869421;29;20508;-90
2022/10/16 04:56:07;;;;;;;0.77;0.77;;;;;;;1.00;81.72;100588.06;4915899;29;20055;-91
2022/10/16 04:58:35;;;;;;;0.80;0.80;;;;;;;1.04;81.41;100586.00;4916594;29;20055;-90
2022/10/16 05:01:03;;;;;;;0.90;0.90;;;;;;;1.00;81.70;100597.88;4898648;29;20043;-94
2022/10/16 05:03:32;;;;;;;0.80;0.80;;;;;;;0.89;81.86;100585.59;4898667;29;20059;-87
2022/10/16 05:05:59;;;;;;;0.70;0.70;;;;;;;0.96;82.08;100596.47;4868085;29;20056;-91
2022/10/16 05:08:29;;;;;;;0.70;0.70;;;;;;;1.00;81.94;100592.56;4912466;29;20084;-91
2022/10/16 05:11:01;;;;;;;0.80;0.80;;;;;;;1.11;81.33;100588.88;4899830;29;20064;-90
2022/10/16 05:13:28;;;;;;;0.80;0.80;;;;;;;1.17;80.85;100593.66;4901223;29;20052;-93
2022/10/16 05:15:55;;;;;;;0.90;0.90;;;;;;;1.18;80.93;100597.97;4898503;29;20048;-84
2022/10/16 05:18:22;;;;;;;0.90;0.90;;;;;;;1.21;80.89;100598.50;4916845;29;20100;-90
2022/10/16 05:20:51;;;;;;;0.82;0.82;;;;;;;1.25;80.58;100602.56;4922908;29;20083;-90
2022/10/16 05:23:20;;;;;;;0.80;0.80;;;;;;;1.24;80.46;100600.91;4903583;29;20115;-91
2022/10/16 05:25:59;;;;;;;0.90;0.90;;;;;;;1.25;80.32;100597.25;4900340;29;20500;-88
2022/10/16 05:28:30;;;;;;;0.90;0.90;;;;;;;1.32;80.60;100610.81;4921227;29;20080;-91
2022/10/16 05:31:09;;;;;;;0.90;0.90;;;;;;;1.40;80.23;100596.78;4885264;29;20067;-92
2022/10/16 05:33:49;;;;;;;0.90;0.90;;;;;;;1.33;80.06;100588.53;4870364;29;20056;-88
2022/10/16 05:36:21;;;;;;;0.90;0.90;;;;;;;1.47;79.94;100604.03;4879606;29;20547;-96
2022/10/16 05:38:53;;;;;;;0.90;0.90;;;;;;;1.54;79.49;100590.97;4866733;29;20069;-93
2022/10/16 05:41:29;;;;;;;0.90;0.90;;;;;;;1.65;78.99;100601.44;4869904;29;20049;-92
2022/10/16 05:44:25;;;;;;;0.90;0.90;;;;;;;1.61;78.89;100592.03;4875263;29;20089;-92
2022/10/16 05:46:54;;;;;;;0.80;0.80;;;;;;;1.66;78.58;100589.78;4855777;29;20063;-94
2022/10/16 05:49:29;;;;;;;0.80;0.80;;;;;;;1.83;78.66;100603.31;4837088;29;20063;-95
2022/10/16 05:55:02;;;;;;;1.00;1.00;;;;;;;2.10;77.88;100629.91;4941893;29;20059;-95
2022/10/16 05:57:32;;;;;;;0.90;0.90;;;;;;;2.08;77.48;100609.75;4885450;29;20115;-91
2022/10/16 06:00:17;;;;;;;0.88;0.88;;;;;;;2.24;77.50;100619.72;4902129;29;20043;-95
2022/10/16 06:02:48;;;;;;;0.85;0.85;;;;;;;2.25;77.39;100610.72;4910290;29;20136;-94
2022/10/16 06:08:34;;;;;;;0.77;0.77;;;;;;;2.48;76.42;100614.63;4880080;29;20048;-95
2022/10/16 06:11:21;;;;;;;0.82;0.82;;;;;;;2.57;75.64;100620.84;4900072;29;20067;-96
2022/10/16 06:14:18;;;;;;;0.90;0.90;;;;;;;2.67;75.26;100631.44;4591345;23;10001654;-92
2022/10/16 06:20:30;;;;;;;0.88;0.88;;;;;;;2.85;74.84;100637.59;4905866;29;20405;-94
2022/10/16 06:23:09;;;;;;;0.85;0.85;;;;;;;2.77;74.88;100622.38;4901392;29;20063;-95
2022/10/16 06:29:22;;;;;;;0.70;0.70;;;;;;;3.07;74.65;100638.09;4907946;29;20025;-91
2022/10/16 06:32:44;;;;;;;0.90;0.90;;;;;;;3.18;73.81;100624.50;4905572;29;20067;-96
2022/10/16 06:35:16;;;;;;;0.90;0.90;;;;;;;3.27;74.01;100631.56;4924577;29;20052;-92
2022/10/16 06:37:44;;;;;;;0.90;0.90;;;;;;;3.33;73.79;100625.59;4899745;29;20056;-91
2022/10/16 06:40:21;;;;;;;;;;;;;;;;;;;;;
2022/10/16 06:42:56;;;;;;;0.90;0.90;;;;;;;3.59;73.42;100643.41;4914729;23;20083;-91
2022/10/16 06:45:24;;;;;;;0.90;0.90;;;;;;;3.58;72.80;100615.88;4912646;29;20056;-93
2022/10/16 06:47:52;;;;;;;0.90;0.90;;;;;;;3.73;72.36;100624.13;4930947;28;20052;-92
2022/10/16 06:50:19;;;;;;;0.80;0.80;;;;;;;3.97;72.38;100635.88;4929480;29;20052;-94
2022/10/16 06:52:46;;;;;;;0.93;0.93;;;;;;;4.03;71.90;100635.25;4937111;28;20032;-89
2022/10/16 06:55:14;;;;;;;0.90;0.90;;;;;;;4.12;71.65;100639.63;4888540;29;20072;-91
2022/10/16 06:57:52;;;;;;;0.90;0.90;;;;;;;4.34;71.37;100636.31;4890110;29;20057;-90
2022/10/16 07:00:22;;;;;;;0.90;0.90;;;;;;;4.46;70.54;100636.03;4900022;29;20052;-91
2022/10/16 07:02:59;;;;;;;0.90;0.90;;;;;;;4.68;70.28;100640.69;4925278;29;20051;-86
2022/10/16 07:05:28;;;;;;;0.90;0.90;;;;;;;4.78;69.65;100636.06;4926446;29;20408;-95
2022/10/16 07:07:55;;;;;;;0.90;0.90;;;;;;;4.92;69.18;100647.09;4923371;29;20039;-90
2022/10/16 07:10:24;;;;;;;0.80;0.80;;;;;;;4.99;69.08;100635.53;4938967;29;20059;-93
2022/10/16 07:13:16;;;;;;;0.80;0.80;;;;;;;5.25;68.61;100647.06;4919627;28;20064;-92
2022/10/16 07:15:50;;;;;;;0.90;0.90;;;;;;;5.37;67.89;100638.50;4932323;29;20142;-89
2022/10/16 07:18:28;;;;;;;0.80;0.80;;;;;;;5.47;67.55;100638.31;5003097;23;20060;-94
2022/10/16 07:21:22;;;;;;;0.90;0.90;;;;;;;5.71;66.62;100640.06;5020424;23;20135;-93
2022/10/16 07:23:56;;;;;;;0.90;0.90;;;;;;;5.84;65.84;100637.66;4949712;29;20483;-89
2022/10/16 07:26:34;;;;;;;0.80;0.80;;;;;;;6.09;65.20;100642.97;4952118;29;20518;-90
2022/10/16 07:29:01;;;;;;;0.90;0.90;;;;;;;6.33;64.48;100638.47;4950683;29;20027;-90
2022/10/16 07:31:28;;;;;;;0.90;0.90;;;;;;;6.72;63.80;100649.94;4946997;29;20083;-91
2022/10/16 07:33:59;;;;;;;0.90;0.90;;;;;;;7.01;62.92;100650.22;4934239;29;20051;-92
2022/10/16 07:36:27;;;;;;;0.90;0.90;;;;;;;7.32;61.86;100645.56;4938307;28;20103;-92
2022/10/16 07:38:54;;;;;;;0.80;0.80;;;;;;;7.58;60.83;100639.75;4951934;29;20080;-94
2022/10/16 07:41:53;;;;;;;0.90;0.90;;;;;;;7.84;59.92;100640.28;4924594;28;20036;-93
2022/10/16 07:45:05;;;;;;;0.90;0.90;;;;;;;8.15;59.15;100638.22;4864649;29;20082;-91
2022/10/16 07:47:32;;;;;;;0.90;0.90;;;;;;;8.40;58.14;100645.97;4877575;29;20059;-93
2022/10/16 07:49:59;;;;;;;0.80;0.80;;;;;;;8.60;56.86;100646.19;4880636;29;20029;-92
2022/10/16 07:52:29;;;;;;;0.82;0.82;;;;;;;8.76;55.99;100631.63;4866923;29;20060;-92
2022/10/16 07:54:56;;;;;;;0.80;0.80;;;;;;;8.71;55.95;100625.97;4914390;23;20062;-92
2022/10/16 07:57:27;;;;;;;0.80;0.80;;;;;;;9.23;54.76;100635.53;4956524;29;20075;-92
2022/10/16 07:59:54;;;;;;;0.90;0.90;;;;;;;9.24;53.85;100631.81;4955997;29;20059;-91
2022/10/16 08:02:27;;;;;;;0.80;0.80;;;;;;;9.65;53.45;100637.28;4948949;29;20036;-90
2022/10/16 08:04:55;;;;;;;0.90;0.90;;;;;;;9.87;52.98;100639.88;4935548;29;20042;-92
2022/10/16 08:07:25;;;;;;;0.90;0.90;;;;;;;10.19;51.71;100624.88;4941915;29;20059;-93
2022/10/16 08:09:58;;;;;;;0.80;0.80;;;;;;;10.30;50.59;100631.56;4954081;28;20502;-94
2022/10/16 08:12:26;;;;;;;0.80;0.80;;;;;;;10.50;50.51;100642.41;4958753;29;20079;-93
2022/10/16 08:14:57;;;;;;;0.80;0.80;;;;;;;10.90;49.43;100632.50;4944692;29;20087;-92
2022/10/16 08:17:26;;;;;;;0.80;0.80;;;;;;;10.97;49.06;100641.47;4939931;28;20059;-90
2022/10/16 08:19:54;;;;;;;0.80;0.80;;;;;;;11.32;48.83;100625.03;4936738;29;20134;-89
2022/10/16 08:22:21;;;;;;;0.70;0.70;;;;;;;11.60;47.83;100640.16;4937536;29;20066;-92
2022/10/16 08:24:49;;;;;;;0.80;0.80;;;;;;;11.85;47.33;100626.75;4938333;29;20119;-91
2022/10/16 08:27:16;;;;;;;0.80;0.80;;;;;;;12.14;46.83;100631.69;4945339;29;20526;-90
2022/10/16 08:29:48;;;;;;;0.80;0.80;;;;;;;12.55;45.58;100626.88;4948083;29;20056;-92
2022/10/16 08:32:16;;;;;;;0.80;0.80;;;;;;;12.35;45.28;100627.00;4941072;29;20047;-88
2022/10/16 08:34:44;;;;;;;0.80;0.80;;;;;;;12.61;45.42;100627.88;4945429;29;20110;-91
2022/10/16 08:37:14;;;;;;;0.80;0.80;;;;;;;13.09;44.40;100632.72;4936909;29;20149;-90
2022/10/16 08:39:42;;;;;;;0.80;0.80;;;;;;;13.24;43.49;100627.81;4919809;29;20078;-91
2022/10/16 08:42:34;;;;;;;0.70;0.70;;;;;;;13.31;43.12;100623.19;4925596;29;20051;-90
2022/10/16 08:45:13;;;;;;;0.80;0.80;;;;;;;13.00;42.49;100619.47;4902979;29;20056;-88
2022/10/16 08:47:54;;;;;;;0.70;0.70;;;;;;;12.87;42.59;100616.03;4926733;29;20058;-89
2022/10/16 08:50:25;;;;;;;0.80;0.80;;;;;;;12.89;42.25;100619.38;4940344;29;20043;-91
2022/10/16 08:52:52;;;;;;;0.80;0.80;;;;;;;12.89;41.56;100619.38;4964248;29;20051;-91
2022/10/16 08:55:50;;;;;;;0.80;0.80;;;;;;;13.03;41.72;100620.91;4967633;29;20654;-92
2022/10/16 08:58:19;;;;;;;0.80;0.80;;;;;;;13.14;41.21;100624.78;4948389;29;20051;-93
2022/10/16 09:01:01;;;;;;;0.80;0.80;;;;;;;13.37;41.44;100619.59;4934824;29;20089;-94
2022/10/16 09:03:43;;;;;;;0.80;0.80;;;;;;;13.34;40.28;100627.34;4926064;29;20047;-92
2022/10/16 09:06:23;;;;;;;0.80;0.80;;;;;;;13.77;39.73;100619.16;4968846;29;20031;-93
2022/10/16 09:08:56;;;;;;;0.70;0.70;;;;;;;13.92;38.78;100628.81;4967866;29;20047;-90
2022/10/16 09:12:44;;;;;;;0.80;0.80;;;;;;;13.41;39.64;100622.69;4956311;28;20047;-94
2022/10/16 09:15:29;;;;;;;0.70;0.70;;;;;;;13.48;39.67;100626.16;5077879;23;20044;-94
2022/10/16 09:18:05;;;;;;;0.90;0.90;;;;;;;13.39;39.63;100624.78;4915273;29;20090;-96
2022/10/16 09:21:20;;;;;;;0.80;0.80;;;;;;;13.44;39.55;100620.38;4928113;29;20043;-94
2022/10/16 09:24:10;;;;;;;;;;;;;;;14.10;39.04;100609.78;4920782;29;20558;-93
2022/10/16 09:26:57;;;;;;;0.80;0.80;;;;;;;14.53;37.74;100611.53;4911756;29;19934;-90
2022/10/16 09:29:25;;;;;;;0.90;0.90;;;;;;;14.96;37.28;100596.84;4923911;29;20052;-92
2022/10/16 09:31:55;;;;;;;0.80;0.80;;;;;;;15.69;36.31;100616.47;4944444;29;20573;-90
2022/10/16 09:34:43;;;;;;;0.80;0.80;;;;;;;15.67;36.04;100613.97;4932847;28;20143;-93
2022/10/16 09:37:37;;;;;;;0.80;0.80;;;;;;;15.52;35.95;100611.78;4892308;29;20116;-95
2022/10/16 09:40:34;;;;;;;0.80;0.80;;;;;;;15.32;36.14;100600.44;4916153;29;20065;-95
2022/10/16 09:50:26;;;;;;;0.90;0.90;;;;;;;14.81;36.64;100596.47;4876698;29;20151;-92
2022/10/16 09:53:13;;;;;;;0.90;0.90;;;;;;;15.30;35.72;100602.56;4863697;29;20041;-95
2022/10/16 10:03:10;;;;;;;0.90;0.90;;;;;;;15.21;35.52;100590.38;5655289;23;20051;-90
2022/10/16 10:12:05;;;;;;;0.80;0.80;;;;;;;16.30;34.30;100617.75;5095935;23;20471;-89
2022/10/16 10:21:28;;;;;;;0.80;0.80;;;;;;;16.94;33.50;100595.78;4911552;29;20033;-94
2022/10/16 10:24:12;;;;;;;0.80;0.80;;;;;;;17.30;32.97;100593.59;4877081;29;20065;-94
2022/10/16 10:27:00;;;;;;;0.80;0.80;;;;;;;17.37;32.38;100599.69;4847983;29;20052;-95
2022/10/16 10:29:54;;;;;;;0.80;0.80;;;;;;;17.10;32.92;100605.84;4866449;29;20589;-93
2022/10/16 10:53:22;;;;;;;0.90;0.90;;;;;;;16.36;34.04;100556.84;6152804;22;1365934;-84
2022/10/16 10:55:56;;;;;;;0.90;0.90;;;;;;;17.02;33.22;100578.97;6204352;23;20056;-92
2022/10/16 10:59:12;;;;;;;0.90;0.90;;;;;;;17.83;32.40;100581.25;6182259;23;20025;-90
2022/10/16 11:01:56;;;;;;;0.80;0.80;;;;;;;17.32;33.25;100570.44;6013938;23;20543;-88
2022/10/16 11:04:37;;;;;;;0.80;0.80;;;;;;;16.98;32.94;100579.72;6075238;23;20030;-90
2022/10/16 11:07:06;;;;;;;0.80;0.80;;;;;;;16.83;33.63;100572.94;6079438;23;20027;-90
2022/10/16 11:09:54;;;;;;;0.88;0.88;;;;;;;16.98;33.04;100557.91;6053111;23;20029;-90
2022/10/16 11:12:34;;;;;;;0.80;0.80;;;;;;;17.09;32.66;100566.00;6083335;23;20030;-88
2022/10/16 11:15:07;;;;;;;0.82;0.82;;;;;;;16.84;33.41;100558.25;6080051;23;20022;-89
2022/10/16 11:17:43;;;;;;;0.80;0.80;;;;;;;17.13;32.67;100570.97;6029210;23;20050;-91
2022/10/16 11:20:25;;;;;;;0.80;0.80;;;;;;;16.69;33.32;100561.50;6060944;23;20029;-92
2022/10/16 11:23:18;;;;;;;0.70;0.70;;;;;;;16.83;33.37;100551.13;6054978;23;20525;-92
2022/10/16 11:25:51;;;;;;;0.80;0.80;;;;;;;16.62;33.13;100555.41;6077751;23;20023;-92
2022/10/16 11:28:33;;;;;;;0.90;0.90;;;;;;;16.62;33.46;100573.66;6012787;23;20423;-91
2022/10/16 11:31:37;;;;;;;0.80;0.80;;;;;;;16.61;33.42;100555.63;6086604;23;20602;-91
2022/10/16 11:34:23;;;;;;;0.80;0.80;;;;;;;16.77;33.31;100564.91;6080960;23;20033;-88
2022/10/16 11:37:08;;;;;;;0.80;0.80;;;;;;;16.63;33.32;100554.31;6081456;23;20054;-94
2022/10/16 11:39:39;;;;;;;0.80;0.80;;;;;;;17.16;32.81;100541.25;5992600;23;20022;-92
2022/10/16 11:42:13;;;;;;;0.80;0.80;;;;;;;17.57;32.27;100554.66;6050170;23;20078;-89
2022/10/16 11:44:48;;;;;;;0.80;0.80;;;;;;;18.05;31.93;100556.63;6040655;23;20408;-87
2022/10/16 11:47:24;;;;;;;0.80;0.80;;;;;;;18.26;32.21;100551.41;6013111;23;20091;-85
2022/10/16 11:50:37;;;;;;;0.80;0.80;;;;;;;18.90;30.96;100548.69;6017746;23;20023;-86
2022/10/16 11:53:09;;;;;;;0.70;0.70;;;;;;;18.57;30.72;100556.06;6009558;23;20042;-89
2022/10/16 11:55:38;;;;;;;0.73;0.73;;;;;;;18.23;31.10;100550.00;6035679;23;20027;-88
2022/10/16 11:58:23;;;;;;;0.70;0.70;;;;;;;18.19;31.14;100546.13;6011699;23;20035;-89
2022/10/16 12:01:08;;;;;;;0.70;0.70;;;;;;;17.97;31.35;100554.34;6014113;23;20027;-89
2022/10/16 12:03:38;;;;;;;0.70;0.70;;;;;;;18.04;31.42;100544.06;6036354;23;20027;-87
2022/10/16 12:06:25;;;;;;;0.70;0.70;;;;;;;18.55;31.10;100547.28;6041633;23;20027;-87
2022/10/16 12:09:02;;;;;;;0.80;0.80;;;;;;;17.83;31.48;100542.19;6048324;23;20030;-89
2022/10/16 12:11:34;;;;;;;0.80;0.80;;;;;;;17.75;31.77;100541.53;6071461;23;20464;-93
2022/10/16 12:14:14;;;;;;;0.70;0.70;;;;;;;17.86;31.64;100544.41;6099160;23;20022;-88
2022/10/16 12:17:19;;;;;;;0.80;0.80;;;;;;;18.73;30.88;100531.56;6071693;23;20074;-88
2022/10/16 12:20:00;;;;;;;0.70;0.70;;;;;;;18.73;30.98;100539.78;6144535;23;20487;-90
2022/10/16 12:22:47;;;;;;;0.65;0.65;;;;;;;18.06;31.03;100541.91;6197182;23;20025;-89
2022/10/16 12:25:36;;;;;;;0.70;0.70;;;;;;;17.76;31.39;100534.97;6160037;23;20071;-88
2022/10/16 12:28:06;;;;;;;0.80;0.80;;;;;;;17.86;31.47;100528.03;6160825;23;20025;-89
2022/10/16 12:30:35;;;;;;;0.70;0.70;;;;;;;17.52;31.57;100525.38;6158920;23;20472;-91
2022/10/16 12:33:26;;;;;;;0.70;0.70;;;;;;;17.58;32.13;100526.28;6136796;23;20413;-91
2022/10/16 12:35:59;;;;;;;0.80;0.80;;;;;;;17.92;31.71;100533.25;6190240;23;20508;-91
2022/10/16 12:38:46;;;;;;;0.80;0.80;;;;;;;17.88;31.70;100523.13;6161273;23;20024;-87
2022/10/16 12:41:24;;;;;;;0.70;0.70;;;;;;;19.34;30.39;100518.31;6193682;23;20029;-92
2022/10/16 12:43:54;;;;;;;0.60;0.60;;;;;;;19.40;29.67;100517.28;6188272;23;20031;-93
2022/10/16 12:46:37;;;;;;;0.70;0.70;;;;;;;18.56;30.33;100529.81;6164391;23;20029;-91
2022/10/16 12:49:13;;;;;;;0.63;0.63;;;;;;;17.97;31.73;100533.31;6164288;23;20021;-88
2022/10/16 12:51:41;;;;;;;0.70;0.70;;;;;;;17.82;31.50;100518.69;6185042;23;20051;-87
2022/10/16 12:54:30;;;;;;;0.70;0.70;;;;;;;17.68;31.95;100523.69;6160026;23;20025;-90
2022/10/16 12:57:15;;;;;;;0.70;0.70;;;;;;;17.50;31.67;100516.63;6193865;23;20384;-89
2022/10/16 12:59:57;;;;;;;0.70;0.70;;;;;;;17.79;31.15;100525.44;6140403;23;20044;-88
2022/10/16 13:02:30;;;;;;;0.70;0.70;;;;;;;17.66;31.75;100523.94;6167405;23;20025;-91
2022/10/16 13:05:35;;;;;;;0.70;0.70;;;;;;;18.51;31.44;100520.72;6194828;23;20027;-89
2022/10/16 13:08:25;;;;;;;0.70;0.70;;;;;;;18.52;31.06;100520.47;6140363;23;20028;-90
2022/10/16 13:11:21;;;;;;;0.68;0.68;;;;;;;17.73;32.03;100516.38;6165359;23;20071;-87